Time;durP1;ratioP1;P1;durP2;ratioP2;P2;SDS_P1;SDS_P2;PMS_P1;PMS_P2;Temp;Humidity;BMP_temperature;BMP_pressure;BME280_temperature;BME280_humidity;BME280_pressure;Samples;Min_cycle;Max_cycle;Signal;HPM_P1;HPM_P2
2023/04/13 00:00:24;;;;;;;;;;;;;;;15.28;75.63;99269.85;108274;1283;22007;-62
2023/04/13 00:02:52;;;;;;;;;;;;;;;15.30;75.68;99269.27;108306;1284;22023;-65
2023/04/13 00:05:18;;;;;;;;;;;;;;;15.32;75.45;99268.61;108301;1284;22438;-65
2023/04/13 00:07:44;;;;;;;;;;;;;;;15.34;75.53;99266.79;108310;1284;21990;-62
2023/04/13 00:10:10;;;;;;;;;;;;;;;15.36;75.41;99262.44;108285;1284;21973;-65
2023/04/13 00:12:37;;;;;;;;;;;;;;;15.37;75.42;99262.06;108261;1284;21968;-62
2023/04/13 00:15:03;;;;;;;;;;;;;;;15.37;75.38;99262.95;108199;1284;21980;-65
2023/04/13 00:17:29;;;;;;;;;;;;;;;15.37;75.37;99264.50;108294;1284;21970;-65
2023/04/13 00:19:56;;;;;;;;;;;;;;;15.37;75.66;99260.77;108235;1284;21981;-66
2023/04/13 00:22:23;;;;;;;;;;;;;;;15.37;75.56;99259.18;108175;1284;22028;-62
2023/04/13 00:24:53;;;;;;;;;;;;;;;15.36;75.52;99260.50;108269;1284;21965;-63
2023/04/13 00:27:19;;;;;;;;;;;;;;;15.38;75.58;99263.21;108287;1284;21968;-66
2023/04/13 00:29:45;;;;;;;;;;;;;;;15.40;75.63;99263.27;108237;1284;21964;-62
2023/04/13 00:32:11;;;;;;;;;;;;;;;15.42;75.88;99259.66;108301;1284;21974;-62
2023/04/13 00:34:40;;;;;;;;;;;;;;;15.44;75.89;99259.20;108314;1284;21968;-62
2023/04/13 00:37:06;;;;;;;;;;;;;;;15.44;75.94;99255.69;107569;1284;1002339;-66
2023/04/13 00:39:33;;;;;;;;;;;;;;;15.44;75.80;99253.76;108399;1280;21977;-65
2023/04/13 00:42:01;;;;;;;;;;;;;;;15.44;76.03;99258.51;108256;1284;21958;-66
2023/04/13 00:44:27;;;;;;;;;;;;;;;15.40;77.50;99256.24;108232;1284;21969;-65
2023/04/13 00:46:53;;;;;;;;;;;;;;;15.37;76.97;99251.60;108241;1285;21969;-62
2023/04/13 00:49:23;;;;;;;;;;;;;;;15.34;77.27;99248.91;108133;1283;21961;-66
2023/04/13 00:51:49;;;;;;;;;;;;;;;15.34;77.43;99248.20;108282;1284;21974;-63
2023/04/13 00:54:18;;;;;;;;;;;;;;;15.37;77.95;99249.46;108349;1284;21967;-62
2023/04/13 00:56:47;;;;;;;;;;;;;;;15.39;77.88;99247.23;108114;1284;22181;-66
2023/04/13 00:59:13;;;;;;;;;;;;;;;15.42;77.80;99245.86;108189;1284;21989;-66
2023/04/13 01:01:45;;;;;;;;;;;;;;;15.46;77.78;99246.00;108181;1285;21996;-66
2023/04/13 01:04:12;;;;;;;;;;;;;;;15.50;77.73;99244.90;108207;1284;21967;-66
2023/04/13 01:06:43;;;;;;;;;;;;;;;15.55;77.87;99245.36;108307;1283;22056;-65
2023/04/13 01:09:23;;;;;;;;;;;;;;;15.60;78.06;99247.42;108282;1284;21972;-66
2023/04/13 01:11:59;;;;;;;;;;;;;;;15.63;77.99;99249.21;108239;1284;21977;-62
2023/04/13 01:14:29;;;;;;;;;;;;;;;15.68;77.82;99244.00;108275;1284;23592;-66
2023/04/13 01:16:56;;;;;;;;;;;;;;;15.73;77.81;99249.93;108252;1284;24309;-66
2023/04/13 01:19:28;;;;;;;;;;;;;;;15.78;77.73;99252.90;108079;1285;21978;-62
2023/04/13 01:21:54;;;;;;;;;;;;;;;15.81;77.78;99255.91;108213;1284;22010;-65
2023/04/13 01:24:39;;;;;;;;;;;;;;;15.83;77.79;99255.81;108236;1284;21984;-67
2023/04/13 01:27:19;;;;;;;;;;;;;;;15.86;77.68;99254.10;108352;1284;21967;-63
2023/04/13 01:29:45;;;;;;;;;;;;;;;15.88;77.63;99254.31;108142;1283;22021;-63
2023/04/13 01:32:12;;;;;;;;;;;;;;;15.90;77.67;99257.73;108256;1283;21983;-63
2023/04/13 01:34:38;;;;;;;;;;;;;;;15.90;77.72;99257.41;108402;1283;21972;-66
2023/04/13 01:37:05;;;;;;;;;;;;;;;15.90;78.47;99255.83;108093;1284;21977;-66
2023/04/13 01:39:32;;;;;;;;;;;;;;;15.87;79.03;99256.15;108309;1284;21972;-66
2023/04/13 01:42:00;;;;;;;;;;;;;;;15.86;78.93;99258.31;108288;1284;21972;-66
2023/04/13 01:44:27;;;;;;;;;;;;;;;15.88;78.31;99258.42;108285;1284;21963;-66
2023/04/13 01:46:53;;;;;;;;;;;;;;;15.89;78.50;99254.84;108338;1282;21967;-67
2023/04/13 01:49:21;;;;;;;;;;;;;;;15.91;78.09;99250.80;108338;1283;21975;-65
2023/04/13 01:51:49;;;;;;;;;;;;;;;15.97;78.12;99254.05;108093;1284;21977;-62
2023/04/13 01:54:16;;;;;;;;;;;;;;;16.00;77.94;99255.64;108269;1284;23017;-66
2023/04/13 01:56:42;;;;;;;;;;;;;;;16.03;78.01;99257.12;108232;1284;21973;-63
2023/04/13 01:59:08;;;;;;;;;;;;;;;16.04;77.90;99258.29;108327;1283;21972;-66
2023/04/13 02:01:33;;;;;;;;;;;;;;;16.06;77.80;99254.10;108262;1284;21972;-66
2023/04/13 02:04:08;;;;;;;;;;;;;;;16.10;77.78;99254.27;108232;1284;21971;-62
2023/04/13 02:06:39;;;;;;;;;;;;;;;16.11;77.59;99257.06;108211;1284;21967;-66
2023/04/13 02:09:05;;;;;;;;;;;;;;;16.12;77.51;99253.79;108238;1284;21978;-63
2023/04/13 02:11:32;;;;;;;;;;;;;;;16.12;77.13;99253.95;108220;1284;22140;-66
2023/04/13 02:14:04;;;;;;;;;;;;;;;16.13;76.98;99250.75;108308;1284;21974;-63
2023/04/13 02:16:33;;;;;;;;;;;;;;;16.13;77.05;99253.23;108343;1284;21956;-67
2023/04/13 02:18:58;;;;;;;;;;;;;;;16.11;77.11;99254.36;108248;1284;21977;-66
2023/04/13 02:21:24;;;;;;;;;;;;;;;16.10;77.12;99254.80;108257;1283;21965;-66
2023/04/13 02:23:56;;;;;;;;;;;;;;;16.09;77.24;99252.23;108377;1283;22202;-64
2023/04/13 02:26:22;;;;;;;;;;;;;;;16.08;77.25;99258.44;108277;1284;21978;-67
2023/04/13 02:28:48;;;;;;;;;;;;;;;16.07;77.94;99259.22;108256;1284;21972;-67
2023/04/13 02:31:15;;;;;;;;;;;;;;;16.07;77.56;99259.04;108277;1280;21970;-67
2023/04/13 02:33:42;;;;;;;;;;;;;;;16.06;77.55;99263.14;108288;1284;21967;-67
2023/04/13 02:36:08;;;;;;;;;;;;;;;16.04;77.56;99262.33;108191;1284;21978;-67
2023/04/13 02:38:36;;;;;;;;;;;;;;;16.05;77.45;99265.29;108280;1284;23280;-67
2023/04/13 02:41:05;;;;;;;;;;;;;;;16.05;77.53;99268.50;108279;1284;21964;-67
2023/04/13 02:43:33;;;;;;;;;;;;;;;16.04;77.52;99268.19;108151;1284;21968;-63
2023/04/13 02:45:58;;;;;;;;;;;;;;;16.04;77.56;99274.20;108181;1284;24373;-67
2023/04/13 02:48:31;;;;;;;;;;;;;;;16.03;77.55;99274.25;108251;1284;22008;-67
2023/04/13 02:50:57;;;;;;;;;;;;;;;16.03;77.71;99275.14;108192;1284;21977;-63
2023/04/13 02:53:26;;;;;;;;;;;;;;;16.03;77.66;99268.23;108257;1284;22036;-63
2023/04/13 02:55:54;;;;;;;;;;;;;;;16.01;78.15;99265.49;108169;1284;21973;-66
2023/04/13 02:58:20;;;;;;;;;;;;;;;15.98;78.23;99266.38;108180;1284;22124;-67
2023/04/13 03:00:47;;;;;;;;;;;;;;;15.98;77.75;99269.41;108189;1284;21964;-67
2023/04/13 03:03:19;;;;;;;;;;;;;;;15.97;77.86;99266.98;108184;1284;21969;-63
2023/04/13 03:05:44;;;;;;;;;;;;;;;15.94;78.12;99267.12;108183;1284;22133;-67
2023/04/13 03:08:10;;;;;;;;;;;;;;;15.93;77.79;99268.41;108205;1284;23697;-63
2023/04/13 03:10:38;;;;;;;;;;;;;;;15.93;77.76;99268.07;108215;1284;21974;-63
2023/04/13 03:13:08;;;;;;;;;;;;;;;15.91;77.99;99271.31;108212;1284;21974;-63
2023/04/13 03:15:33;;;;;;;;;;;;;;;15.90;77.69;99270.84;108266;1283;21971;-63
2023/04/13 03:17:59;;;;;;;;;;;;;;;15.90;77.92;99274.40;108147;1284;21978;-67
2023/04/13 03:20:27;;;;;;;;;;;;;;;15.89;77.76;99281.38;108267;1284;21975;-63
2023/04/13 03:22:54;;;;;;;;;;;;;;;15.88;77.85;99282.65;108214;1284;21980;-63
2023/04/13 03:25:20;;;;;;;;;;;;;;;15.90;77.82;99286.95;108177;1284;22002;-63
2023/04/13 03:27:46;;;;;;;;;;;;;;;15.90;77.89;99287.64;108377;1284;23676;-66
2023/04/13 03:30:12;;;;;;;;;;;;;;;15.89;78.24;99290.74;108381;1283;21967;-63
2023/04/13 03:32:39;;;;;;;;;;;;;;;15.89;78.10;99293.58;108395;1283;22096;-63
2023/04/13 03:35:05;;;;;;;;;;;;;;;15.90;77.95;99296.53;108392;1283;21977;-67
2023/04/13 03:37:38;;;;;;;;;;;;;;;15.91;78.02;99301.77;108244;1284;21975;-66
2023/04/13 03:40:09;;;;;;;;;;;;;;;15.91;78.00;99305.47;108248;1284;21958;-63
2023/04/13 03:42:35;;;;;;;;;;;;;;;15.93;78.05;99308.41;108271;1284;22013;-63
2023/04/13 03:45:01;;;;;;;;;;;;;;;15.94;78.23;99312.79;108049;1284;21982;-63
2023/04/13 03:47:26;;;;;;;;;;;;;;;15.94;78.29;99314.20;108336;1283;21961;-67
2023/04/13 03:49:52;;;;;;;;;;;;;;;15.95;78.47;99315.36;108545;1283;22001;-64
2023/04/13 03:52:17;;;;;;;;;;;;;;;15.96;78.46;99317.98;108357;1283;23602;-63
2023/04/13 03:54:43;;;;;;;;;;;;;;;15.99;78.72;99314.83;108205;1284;22068;-64
2023/04/13 03:57:10;;;;;;;;;;;;;;;16.01;79.09;99315.27;108269;1283;21978;-63
2023/04/13 03:59:35;;;;;;;;;;;;;;;16.01;79.50;99319.67;108275;1284;22027;-67
2023/04/13 04:02:03;;;;;;;;;;;;;;;16.03;79.07;99318.86;108271;1284;21973;-66
2023/04/13 04:04:30;;;;;;;;;;;;;;;16.05;79.11;99318.58;108167;1284;22415;-68
2023/04/13 04:07:02;;;;;;;;;;;;;;;16.05;79.40;99321.22;108221;1285;23695;-63
2023/04/13 04:09:28;;;;;;;;;;;;;;;16.06;79.52;99320.48;108112;1284;22222;-63
2023/04/13 04:11:55;;;;;;;;;;;;;;;16.04;80.69;99321.98;108179;1284;24309;-63
2023/04/13 04:14:21;;;;;;;;;;;;;;;16.06;80.74;99326.85;108214;1285;21993;-68
2023/04/13 04:16:50;;;;;;;;;;;;;;;16.06;80.69;99326.14;108216;1284;21967;-64
2023/04/13 04:19:15;;;;;;;;;;;;;;;16.06;80.54;99329.30;108223;1284;21967;-68
2023/04/13 04:21:43;;;;;;;;;;;;;;;16.08;80.67;99331.02;108233;1284;21972;-68
2023/04/13 04:24:11;;;;;;;;;;;;;;;16.10;80.56;99335.52;108234;1284;21974;-68
2023/04/13 04:26:37;;;;;;;;;;;;;;;16.12;81.06;99342.11;108339;1284;21966;-67
2023/04/13 04:29:02;;;;;;;;;;;;;;;16.14;81.11;99343.42;108299;1281;21978;-68
2023/04/13 04:31:33;;;;;;;;;;;;;;;16.15;81.17;99341.23;108204;1283;21969;-64
2023/04/13 04:34:01;;;;;;;;;;;;;;;16.16;81.97;99345.09;108225;1284;22083;-67
2023/04/13 04:36:27;;;;;;;;;;;;;;;16.17;81.39;99346.98;108210;1283;21974;-64
2023/04/13 04:38:56;;;;;;;;;;;;;;;16.19;81.88;99350.20;108296;1284;21978;-68
2023/04/13 04:41:25;;;;;;;;;;;;;;;16.22;81.95;99345.52;108228;1284;21969;-68
2023/04/13 04:43:50;;;;;;;;;;;;;;;16.25;81.55;99349.41;108324;1284;21974;-68
2023/04/13 04:46:17;;;;;;;;;;;;;;;16.28;81.74;99355.80;108285;1283;21968;-66
2023/04/13 04:48:46;;;;;;;;;;;;;;;16.30;83.04;99354.12;108297;1284;23596;-64
2023/04/13 04:51:13;;;;;;;;;;;;;;;16.32;83.16;99355.80;108372;1281;21986;-64
2023/04/13 04:53:40;;;;;;;;;;;;;;;16.36;83.12;99360.00;108207;1283;22012;-64
2023/04/13 04:56:06;;;;;;;;;;;;;;;16.42;82.73;99360.20;108362;1285;23798;-67
2023/04/13 04:58:34;;;;;;;;;;;;;;;16.45;83.55;99361.80;108472;1284;23085;-67
2023/04/13 05:01:00;;;;;;;;;;;;;;;16.49;84.04;99361.44;108419;1284;22056;-66
2023/04/13 05:03:30;;;;;;;;;;;;;;;16.54;84.22;99359.17;108309;1284;24380;-67
2023/04/13 05:05:57;;;;;;;;;;;;;;;16.60;83.75;99355.88;108304;1284;22080;-67
2023/04/13 05:08:23;;;;;;;;;;;;;;;16.62;83.27;99356.27;108353;1284;22002;-64
2023/04/13 05:10:49;;;;;;;;;;;;;;;16.68;83.46;99353.70;108256;1284;21968;-63
2023/04/13 05:13:15;;;;;;;;;;;;;;;16.73;83.51;99352.70;108332;1283;21979;-63
2023/04/13 05:15:41;;;;;;;;;;;;;;;16.76;83.71;99353.97;108297;1284;23048;-63
2023/04/13 05:18:09;;;;;;;;;;;;;;;16.78;83.59;99358.59;108218;1284;21976;-63
2023/04/13 05:20:34;;;;;;;;;;;;;;;16.81;83.99;99356.33;108223;1284;24166;-67
2023/04/13 05:23:00;;;;;;;;;;;;;;;16.87;84.05;99359.02;108258;1284;21968;-63
2023/04/13 05:25:26;;;;;;;;;;;;;;;16.91;83.57;99357.91;108201;1284;23717;-66
2023/04/13 05:27:51;;;;;;;;;;;;;;;16.93;83.40;99359.77;108374;1284;22021;-66
2023/04/13 05:30:19;;;;;;;;;;;;;;;16.96;83.16;99355.19;107978;1284;21986;-67
2023/04/13 05:32:46;;;;;;;;;;;;;;;17.00;83.28;99348.45;108161;1284;21967;-66
2023/04/13 05:35:12;;;;;;;;;;;;;;;17.01;83.74;99346.95;108295;1284;21968;-68
2023/04/13 05:37:38;;;;;;;;;;;;;;;17.03;83.05;99347.73;108271;1284;23589;-66
2023/04/13 05:40:07;;;;;;;;;;;;;;;16.96;83.97;99347.95;108295;1283;21970;-66
2023/04/13 05:42:32;;;;;;;;;;;;;;;16.88;84.37;99349.80;108454;1282;21967;-66
2023/04/13 05:44:59;;;;;;;;;;;;;;;16.88;84.67;99347.80;108384;1283;23036;-67
2023/04/13 05:47:24;;;;;;;;;;;;;;;16.89;84.78;99350.07;108242;1284;21968;-67
2023/04/13 05:49:51;;;;;;;;;;;;;;;16.90;85.16;99352.48;108411;1284;22002;-68
2023/04/13 05:52:17;;;;;;;;;;;;;;;16.88;85.06;99352.06;108289;1284;21950;-66
2023/04/13 05:54:45;;;;;;;;;;;;;;;16.96;84.45;99353.25;108326;1284;22144;-69
2023/04/13 05:57:11;;;;;;;;;;;;;;;16.97;84.38;99352.31;108246;1283;23693;-67
2023/04/13 05:59:39;;;;;;;;;;;;;;;16.88;85.38;99355.60;108267;1283;21995;-68
2023/04/13 06:02:04;;;;;;;;;;;;;;;16.84;84.51;99357.09;108283;1283;22002;-67
2023/04/13 06:04:30;;;;;;;;;;;;;;;16.82;83.35;99359.28;108306;1283;21955;-67
2023/04/13 06:06:56;;;;;;;;;;;;;;;16.81;83.44;99357.75;108364;1283;22434;-68
2023/04/13 06:09:22;;;;;;;;;;;;;;;16.83;83.23;99362.44;108456;1284;21962;-68
2023/04/13 06:11:48;;;;;;;;;;;;;;;16.86;82.34;99362.61;108382;1284;21973;-68
2023/04/13 06:14:16;;;;;;;;;;;;;;;16.90;82.40;99367.76;108323;1281;23631;-68
2023/04/13 06:16:42;;;;;;;;;;;;;;;16.89;82.36;99367.77;108276;1280;22504;-68
2023/04/13 06:19:07;;;;;;;;;;;;;;;16.89;82.14;99365.67;108317;1280;23749;-67
2023/04/13 06:21:35;;;;;;;;;;;;;;;16.88;82.17;99369.25;108319;1284;21977;-68
2023/04/13 06:24:01;;;;;;;;;;;;;;;16.84;82.18;99373.38;108246;1284;25573;-68
2023/04/13 06:26:27;;;;;;;;;;;;;;;16.79;82.02;99370.79;108294;1284;21985;-67
2023/04/13 06:28:53;;;;;;;;;;;;;;;16.76;81.75;99375.21;108321;1280;21966;-68
2023/04/13 06:31:20;;;;;;;;;;;;;;;16.76;82.05;99379.64;108207;1284;21974;-67
2023/04/13 06:33:46;;;;;;;;;;;;;;;16.74;82.18;99384.54;108309;1284;21977;-68
2023/04/13 06:36:14;;;;;;;;;;;;;;;16.74;82.09;99384.89;108250;1284;24458;-68
2023/04/13 06:38:40;;;;;;;;;;;;;;;16.76;81.75;99392.39;108273;1277;21970;-68
2023/04/13 06:41:05;;;;;;;;;;;;;;;16.78;81.56;99397.77;108225;1284;21967;-68
2023/04/13 06:43:32;;;;;;;;;;;;;;;16.83;81.51;99402.69;108342;1283;22043;-69
2023/04/13 06:45:58;;;;;;;;;;;;;;;16.83;81.49;99403.21;108326;1284;22002;-68
2023/04/13 06:48:24;;;;;;;;;;;;;;;16.80;81.60;99406.52;108293;1284;21965;-68
2023/04/13 06:50:51;;;;;;;;;;;;;;;16.82;81.52;99403.06;108268;1283;21961;-68
2023/04/13 06:53:17;;;;;;;;;;;;;;;16.80;82.42;99401.58;108292;1284;23676;-68
2023/04/13 06:55:44;;;;;;;;;;;;;;;16.81;82.04;99405.08;108290;1284;21975;-66
2023/04/13 06:58:10;;;;;;;;;;;;;;;16.80;82.28;99407.96;108284;1283;22147;-67
2023/04/13 07:00:36;;;;;;;;;;;;;;;16.82;82.06;99409.80;108212;1284;21968;-67
2023/04/13 07:03:03;;;;;;;;;;;;;;;16.84;82.47;99411.44;108230;1284;23131;-68
2023/04/13 07:05:30;;;;;;;;;;;;;;;16.84;82.90;99414.81;108262;1284;23379;-67
2023/04/13 07:07:56;;;;;;;;;;;;;;;16.84;82.40;99418.39;108267;1284;21974;-67
2023/04/13 07:10:21;;;;;;;;;;;;;;;16.82;81.91;99420.92;108151;1284;22009;-66
2023/04/13 07:12:47;;;;;;;;;;;;;;;16.66;83.20;99423.56;108230;1284;22020;-68
2023/04/13 07:15:13;;;;;;;;;;;;;;;16.74;82.04;99425.45;108223;1284;21968;-67
2023/04/13 07:17:39;;;;;;;;;;;;;;;16.80;82.87;99425.87;108317;1284;21992;-67
2023/04/13 07:20:11;;;;;;;;;;;;;;;16.82;82.40;99428.25;108295;1284;22082;-67
2023/04/13 07:22:37;;;;;;;;;;;;;;;16.84;82.76;99429.38;108262;1284;23618;-67
2023/04/13 07:25:03;;;;;;;;;;;;;;;16.85;83.07;99428.41;108249;1284;24303;-67
2023/04/13 07:27:29;;;;;;;;;;;;;;;16.88;82.25;99434.45;108256;1284;21970;-66
2023/04/13 07:29:55;;;;;;;;;;;;;;;16.86;82.38;99435.81;108286;1284;21980;-66
2023/04/13 07:32:21;;;;;;;;;;;;;;;16.72;82.95;99438.13;108252;1284;23709;-67
2023/04/13 07:34:46;;;;;;;;;;;;;;;16.77;82.26;99442.81;108220;1284;22119;-67
2023/04/13 07:37:12;;;;;;;;;;;;;;;16.79;82.19;99444.31;108256;1283;22928;-67
2023/04/13 07:39:38;;;;;;;;;;;;;;;16.75;82.56;99443.81;108269;1285;21974;-66
2023/04/13 07:42:05;;;;;;;;;;;;;;;16.76;82.59;99441.62;108290;1284;22031;-68
2023/04/13 07:44:36;;;;;;;;;;;;;;;16.86;82.36;99441.83;108347;1284;22044;-66
2023/04/13 07:47:02;;;;;;;;;;;;;;;16.91;82.45;99447.94;108263;1284;21973;-67
2023/04/13 07:49:27;;;;;;;;;;;;;;;16.98;82.51;99443.52;108226;1284;21964;-65
2023/04/13 07:51:53;;;;;;;;;;;;;;;17.04;83.09;99446.02;108262;1284;21970;-65
2023/04/13 07:54:19;;;;;;;;;;;;;;;17.11;82.68;99447.45;108342;1283;21969;-65
2023/04/13 07:56:45;;;;;;;;;;;;;;;17.15;81.84;99447.20;108208;1284;21976;-65
2023/04/13 07:59:12;;;;;;;;;;;;;;;17.21;81.38;99452.75;108266;1284;21972;-66
2023/04/13 08:01:38;;;;;;;;;;;;;;;17.29;81.16;99455.69;108231;1284;21966;-65
2023/04/13 08:04:05;;;;;;;;;;;;;;;17.33;81.17;99460.23;108250;1284;21941;-65
2023/04/13 08:06:33;;;;;;;;;;;;;;;17.38;80.34;99463.86;108384;1284;21960;-66
2023/04/13 08:08:59;;;;;;;;;;;;;;;17.46;80.39;99470.52;108189;1284;22010;-65
2023/04/13 08:11:25;;;;;;;;;;;;;;;17.47;79.60;99469.59;108273;1283;21999;-65
2023/04/13 08:13:53;;;;;;;;;;;;;;;17.40;79.46;99472.63;108284;1284;21967;-64
2023/04/13 08:16:20;;;;;;;;;;;;;;;17.38;79.15;99472.92;109333;1284;21968;-64
2023/04/13 08:18:46;;;;;;;;;;;;;;;17.50;78.89;99471.38;108085;1284;22145;-65
2023/04/13 08:21:13;;;;;;;;;;;;;;;17.59;79.19;99471.95;108098;1284;21969;-65
2023/04/13 08:23:41;;;;;;;;;;;;;;;17.57;80.00;99476.51;110248;1284;21952;-65
2023/04/13 08:26:07;;;;;;;;;;;;;;;17.61;79.05;99474.86;109062;1284;22741;-64
2023/04/13 08:28:32;;;;;;;;;;;;;;;17.64;79.08;99479.27;108190;1284;21976;-64
2023/04/13 08:30:58;;;;;;;;;;;;;;;17.66;78.84;99484.33;108309;1281;22143;-66
2023/04/13 08:33:26;;;;;;;;;;;;;;;17.71;78.59;99483.33;108326;1283;21960;-65
2023/04/13 08:35:51;;;;;;;;;;;;;;;17.74;78.16;99483.36;108257;1284;21976;-65
2023/04/13 08:38:19;;;;;;;;;;;;;;;17.69;77.72;99482.54;108273;1284;23228;-65
2023/04/13 08:40:45;;;;;;;;;;;;;;;17.54;76.76;99484.28;108305;1280;21972;-64
2023/04/13 08:43:10;;;;;;;;;;;;;;;17.47;77.18;99485.02;108273;1284;21963;-64
2023/04/13 08:45:38;;;;;;;;;;;;;;;17.48;77.22;99485.33;108154;1284;21989;-63
2023/04/13 08:48:06;;;;;;;;;;;;;;;17.47;76.60;99488.05;108257;1284;23835;-62
2023/04/13 08:50:31;;;;;;;;;;;;;;;17.33;76.28;99491.85;108344;1281;21965;-65
2023/04/13 08:52:57;;;;;;;;;;;;;;;17.32;76.36;99491.86;108261;1284;21973;-64
2023/04/13 08:55:22;;;;;;;;;;;;;;;17.20;76.71;99487.73;108245;1284;23597;-63
2023/04/13 08:57:48;;;;;;;;;;;;;;;17.07;76.90;99491.39;108111;1284;145731;-64
2023/04/13 09:00:16;;;;;;;;;;;;;;;17.00;76.93;99489.48;108288;1284;21964;-63
2023/04/13 09:02:47;;;;;;;;;;;;;;;17.09;76.71;99489.36;108309;1284;22062;-63
2023/04/13 09:05:14;;;;;;;;;;;;;;;17.03;77.27;99492.33;108281;1284;21968;-64
2023/04/13 09:07:40;;;;;;;;;;;;;;;16.90;78.48;99494.95;108336;1284;23687;-64
2023/04/13 09:10:08;;;;;;;;;;;;;;;16.94;78.50;99497.42;108300;1284;23793;-64
2023/04/13 09:12:34;;;;;;;;;;;;;;;16.91;79.16;99496.15;108328;1284;22002;-64
2023/04/13 09:15:02;;;;;;;;;;;;;;;16.93;79.92;99495.01;108270;1284;22008;-64
2023/04/13 09:17:34;;;;;;;;;;;;;;;16.92;80.35;99492.92;108114;1284;21964;-64
2023/04/13 09:20:21;;;;;;;;;;;;;;;17.01;80.15;99490.86;108316;1284;21977;-64
2023/04/13 09:22:47;;;;;;;;;;;;;;;17.13;79.86;99489.33;108268;1284;21968;-64
2023/04/13 09:25:19;;;;;;;;;;;;;;;17.24;80.12;99488.92;108294;1284;21974;-64
2023/04/13 09:27:48;;;;;;;;;;;;;;;17.42;79.63;99480.66;108303;1284;22904;-63
2023/04/13 09:30:17;;;;;;;;;;;;;;;17.62;79.30;99479.77;108402;1283;21964;-63
2023/04/13 09:32:47;;;;;;;;;;;;;;;17.73;79.34;99480.02;108383;1283;21978;-63
2023/04/13 09:35:13;;;;;;;;;;;;;;;17.87;79.37;99472.52;108065;1284;21965;-64
2023/04/13 09:37:40;;;;;;;;;;;;;;;18.06;78.67;99475.00;108173;1284;21973;-64
2023/04/13 09:40:13;;;;;;;;;;;;;;;18.17;77.87;99475.23;108262;1281;21963;-64
2023/04/13 09:42:52;;;;;;;;;;;;;;;18.28;76.68;99471.09;108255;1277;21961;-64
2023/04/13 09:45:18;;;;;;;;;;;;;;;18.46;76.94;99473.60;108194;1284;21962;-63
2023/04/13 09:47:44;;;;;;;;;;;;;;;18.59;76.08;99475.85;108389;1283;21982;-65
2023/04/13 09:50:17;;;;;;;;;;;;;;;18.66;75.69;99474.16;108323;1284;21967;-63
2023/04/13 09:52:43;;;;;;;;;;;;;;;18.73;75.28;99479.11;108256;1284;21966;-64
2023/04/13 09:55:18;;;;;;;;;;;;;;;18.80;74.62;99478.65;108298;1284;23588;-64
2023/04/13 09:57:44;;;;;;;;;;;;;;;18.73;73.34;99478.71;108233;1284;21967;-64
2023/04/13 10:00:19;;;;;;;;;;;;;;;18.79;72.61;99479.77;108317;1283;22060;-63
2023/04/13 10:02:49;;;;;;;;;;;;;;;18.69;71.38;99481.95;108342;1284;21988;-64
2023/04/13 10:05:16;;;;;;;;;;;;;;;18.67;71.60;99481.94;108275;1284;23711;-64
2023/04/13 10:07:45;;;;;;;;;;;;;;;18.84;71.90;99478.94;108171;1284;23769;-63
2023/04/13 10:10:11;;;;;;;;;;;;;;;19.04;72.90;99479.68;108078;1283;22396;-64
2023/04/13 10:12:38;;;;;;;;;;;;;;;19.15;70.90;99475.80;108257;1284;22001;-64
2023/04/13 10:15:11;;;;;;;;;;;;;;;19.38;71.35;99474.95;108211;1284;22065;-64
2023/04/13 10:17:37;;;;;;;;;;;;;;;19.64;70.37;99475.23;108141;1284;21965;-65
2023/04/13 10:20:09;;;;;;;;;;;;;;;19.71;69.18;99478.52;108205;1281;23693;-64
2023/04/13 10:22:34;;;;;;;;;;;;;;;19.66;68.54;99478.15;108278;1283;22003;-65
2023/04/13 10:25:00;;;;;;;;;;;;;;;19.73;68.29;99481.80;108253;1284;21975;-64
2023/04/13 10:27:26;;;;;;;;;;;;;;;19.74;67.53;99482.25;108088;1284;21964;-65
2023/04/13 10:29:53;;;;;;;;;;;;;;;19.75;68.24;99481.12;108263;1281;21965;-64
2023/04/13 10:32:19;;;;;;;;;;;;;;;19.67;68.03;99480.05;108104;1284;22828;-65
2023/04/13 10:34:45;;;;;;;;;;;;;;;19.65;68.12;99475.87;108056;1285;22005;-64
2023/04/13 10:37:18;;;;;;;;;;;;;;;19.61;68.12;99476.13;108129;1284;21968;-65
2023/04/13 10:39:45;;;;;;;;;;;;;;;19.64;67.84;99478.27;110267;1284;21918;-64
2023/04/13 10:42:12;;;;;;;;;;;;;;;19.65;68.06;99479.33;108694;1284;24384;-62
2023/04/13 10:44:48;;;;;;;;;;;;;;;19.66;68.35;99477.59;108081;1284;23586;-61
2023/04/13 10:47:14;;;;;;;;;;;;;;;19.64;67.77;99474.54;108263;1284;23477;-65
2023/04/13 10:49:40;;;;;;;;;;;;;;;19.65;67.02;99476.40;108287;1284;21964;-63
2023/04/13 10:52:06;;;;;;;;;;;;;;;19.52;65.61;99477.77;108209;1284;21971;-63
2023/04/13 10:54:33;;;;;;;;;;;;;;;19.49;66.17;99480.97;108278;1284;21971;-64
2023/04/13 10:57:05;;;;;;;;;;;;;;;19.47;66.47;99481.67;108213;1284;21969;-63
2023/04/13 10:59:37;;;;;;;;;;;;;;;19.37;65.19;99480.54;108372;1281;21974;-64
2023/04/13 11:02:08;;;;;;;;;;;;;;;19.34;65.97;99485.30;108220;1284;22717;-64
2023/04/13 11:04:36;;;;;;;;;;;;;;;19.34;66.58;99489.27;108718;1284;23267;-64
2023/04/13 11:07:03;;;;;;;;;;;;;;;19.40;66.88;99493.16;110262;1284;21952;-65
2023/04/13 11:09:28;;;;;;;;;;;;;;;19.38;66.40;99497.02;110071;1285;21969;-64
2023/04/13 11:11:55;;;;;;;;;;;;;;;19.18;65.42;99497.17;108219;1284;21986;-64
2023/04/13 11:14:24;;;;;;;;;;;;;;;19.16;66.49;99499.23;108252;1284;22054;-63
2023/04/13 11:16:50;;;;;;;;;;;;;;;19.27;67.51;99503.56;108345;1284;21977;-65
2023/04/13 11:19:17;;;;;;;;;;;;;;;19.37;67.41;99502.58;108164;1284;23604;-64
2023/04/13 11:21:43;;;;;;;;;;;;;;;19.41;66.33;99504.42;108211;1284;21984;-64
2023/04/13 11:24:10;;;;;;;;;;;;;;;19.46;66.81;99503.41;108309;1284;22431;-64
2023/04/13 11:26:37;;;;;;;;;;;;;;;19.50;67.21;99494.29;108200;1284;21966;-64
2023/04/13 11:29:03;;;;;;;;;;;;;;;19.52;66.39;99489.20;108671;1283;22005;-65
2023/04/13 11:31:38;;;;;;;;;;;;;;;19.51;66.20;99488.52;108239;1282;23041;-64
2023/04/13 11:34:05;;;;;;;;;;;;;;;19.49;66.18;99488.98;108345;1283;21974;-65
2023/04/13 11:36:31;;;;;;;;;;;;;;;19.43;65.99;99500.61;108223;1284;21964;-64
2023/04/13 11:39:00;;;;;;;;;;;;;;;19.37;66.05;99501.33;108317;1284;21969;-64
2023/04/13 11:41:27;;;;;;;;;;;;;;;19.31;66.58;99501.66;108317;1284;21961;-65
2023/04/13 11:43:54;;;;;;;;;;;;;;;19.28;66.21;99506.11;108247;1284;21962;-64
2023/04/13 11:46:25;;;;;;;;;;;;;;;19.25;66.14;99506.14;108244;1284;21964;-65
2023/04/13 11:48:51;;;;;;;;;;;;;;;19.21;65.74;99505.17;108372;1284;23068;-64
2023/04/13 11:51:18;;;;;;;;;;;;;;;19.17;65.60;99505.77;108305;1280;21957;-65
2023/04/13 11:53:44;;;;;;;;;;;;;;;19.22;66.26;99506.89;108346;1284;21962;-64
2023/04/13 11:56:13;;;;;;;;;;;;;;;19.14;66.13;99508.58;108119;1284;24344;-64
2023/04/13 11:58:39;;;;;;;;;;;;;;;19.16;65.93;99509.38;108287;1284;21970;-65
2023/04/13 12:01:06;;;;;;;;;;;;;;;19.07;65.62;99510.45;108268;1284;21969;-64
2023/04/13 12:03:33;;;;;;;;;;;;;;;19.09;65.69;99512.30;108287;1284;21973;-65
2023/04/13 12:05:59;;;;;;;;;;;;;;;19.00;65.33;99513.38;108243;1284;21973;-64
2023/04/13 12:08:25;;;;;;;;;;;;;;;19.01;65.61;99515.77;108307;1284;21968;-64
2023/04/13 12:10:58;;;;;;;;;;;;;;;19.12;65.60;99516.74;108256;1284;21970;-64
2023/04/13 12:13:24;;;;;;;;;;;;;;;19.03;65.24;99521.53;108221;1280;23038;-64
2023/04/13 12:15:51;;;;;;;;;;;;;;;19.02;65.53;99523.20;108056;1284;23719;-64
2023/04/13 12:18:18;;;;;;;;;;;;;;;19.12;66.27;99524.19;108246;1284;21965;-65
2023/04/13 12:20:44;;;;;;;;;;;;;;;19.15;66.50;99522.39;108318;1284;21972;-65
2023/04/13 12:23:17;;;;;;;;;;;;;;;19.12;66.59;99524.21;108270;1284;22185;-64
2023/04/13 12:25:56;;;;;;;;;;;;;;;19.15;66.54;99523.48;108238;1283;21972;-65
2023/04/13 12:28:32;;;;;;;;;;;;;;;19.15;66.62;99525.23;108205;1284;21966;-64
2023/04/13 12:31:02;;;;;;;;;;;;;;;19.07;66.83;99529.13;108238;1284;25637;-65
2023/04/13 12:33:29;;;;;;;;;;;;;;;19.00;66.92;99532.03;108234;1284;21964;-65
2023/04/13 12:35:55;;;;;;;;;;;;;;;19.02;66.69;99534.55;108177;1284;22002;-65